KDEN

Denver International Airport

Denver, Colorado, USA
METAR KDEN 192253Z 01023G33KT 10SM SCT070 BKN095 BKN150 22/08 A3022 RMK AO2 PK WND 36037/2236 SLP171 T02170078 $
Observed Flight Rules
Aug-19 @ 22:53 UTC (16 minutes ago) Visual Flight Rules
Wind Visibility Clouds
10° at 23 knots
 Gusting to 33 knots
10 miles
  • Scattered at 7,000' AGL
  • Broken at 9,500' AGL
  • Broken at 15,000' AGL
Temperatures Readings
Current 22°C / 72°F
Dewpoint 8°C / 46°F
Humidity 41%
Altimeter 30.22" Hg
Pressure 1017.1 hPa
Elevation 1640
METAR KDEN 192253Z 01023G33KT 10SM SCT070 BKN095 BKN150 22/08 A3022 RMK AO2 PK WND 36037/2236 SLP171 T02170078 $
Observed Flight Rules
Aug-19 @ 22:53 UTC
(16 minutes ago)
VFR
Wind Visibility
10° at 23 knots
 Gusting to 33 knots
10 miles
Clouds
  • Scattered at 7,000' AGL
  • Broken at 9,500' AGL
  • Broken at 15,000' AGL
Temperature Dewpoint
22°C / 72°F 8°C / 46°F
Humidity Altimeter Pressure
41% 30.22" Hg 1017.1 hPa